sensor_id;sensor_type;location;lat;lon;timestamp;noise_LAeq;noise_LA_min;noise_LA_max;noise_LA01;noise_LA95
57439;Laerm;43282;47.188;8.896;2023-03-25T00:00:55;50.50;41.38;63.91;;
57439;Laerm;43282;47.188;8.896;2023-03-25T00:03:27;50.00;39.46;62.52;;
57439;Laerm;43282;47.188;8.896;2023-03-25T00:05:53;49.68;40.62;65.88;;
57439;Laerm;43282;47.188;8.896;2023-03-25T00:08:19;49.05;40.62;63.78;;
57439;Laerm;43282;47.188;8.896;2023-03-25T00:10:44;53.81;42.16;65.12;;
57439;Laerm;43282;47.188;8.896;2023-03-25T00:13:09;48.32;41.22;63.21;;
57439;Laerm;43282;47.188;8.896;2023-03-25T00:15:43;48.80;41.46;63.35;;
57439;Laerm;43282;47.188;8.896;2023-03-25T00:18:09;46.78;40.33;60.00;;
57439;Laerm;43282;47.188;8.896;2023-03-25T00:20:35;44.98;40.33;54.78;;
57439;Laerm;43282;47.188;8.896;2023-03-25T00:23:00;47.09;39.92;63.01;;
57439;Laerm;43282;47.188;8.896;2023-03-25T00:25:25;48.35;39.81;61.38;;
57439;Laerm;43282;47.188;8.896;2023-03-25T00:27:50;51.92;42.09;63.16;;
57439;Laerm;43282;47.188;8.896;2023-03-25T00:30:16;51.03;39.92;67.18;;
57439;Laerm;43282;47.188;8.896;2023-03-25T00:32:43;46.28;40.53;59.63;;
57439;Laerm;43282;47.188;8.896;2023-03-25T00:35:10;61.53;40.23;88.58;;
57439;Laerm;43282;47.188;8.896;2023-03-25T00:37:37;50.87;40.89;66.93;;
57439;Laerm;43282;47.188;8.896;2023-03-25T00:40:03;49.82;38.67;65.26;;
57439;Laerm;43282;47.188;8.896;2023-03-25T00:42:29;44.77;38.87;60.28;;
57439;Laerm;43282;47.188;8.896;2023-03-25T00:44:55;51.39;38.52;65.29;;
57439;Laerm;43282;47.188;8.896;2023-03-25T00:47:20;48.27;39.58;63.30;;
57439;Laerm;43282;47.188;8.896;2023-03-25T00:49:46;42.40;39.89;45.20;;
57439;Laerm;43282;47.188;8.896;2023-03-25T00:52:11;46.21;38.95;60.10;;
57439;Laerm;43282;47.188;8.896;2023-03-25T00:54:38;45.52;39.46;59.31;;
57439;Laerm;43282;47.188;8.896;2023-03-25T00:57:03;48.51;38.21;62.49;;
57439;Laerm;43282;47.188;8.896;2023-03-25T00:59:28;51.02;39.46;71.21;;
57439;Laerm;43282;47.188;8.896;2023-03-25T01:01:54;47.88;38.05;64.15;;
57439;Laerm;43282;47.188;8.896;2023-03-25T01:04:20;43.72;38.52;58.28;;
57439;Laerm;43282;47.188;8.896;2023-03-25T01:06:45;46.82;39.08;61.77;;
57439;Laerm;43282;47.188;8.896;2023-03-25T01:09:16;45.67;39.11;61.22;;
57439;Laerm;43282;47.188;8.896;2023-03-25T01:11:43;45.74;38.67;62.29;;
57439;Laerm;43282;47.188;8.896;2023-03-25T01:14:12;49.49;39.92;65.59;;
57439;Laerm;43282;47.188;8.896;2023-03-25T01:16:38;53.19;40.98;76.12;;
57439;Laerm;43282;47.188;8.896;2023-03-25T01:19:03;51.87;37.88;74.75;;
57439;Laerm;43282;47.188;8.896;2023-03-25T01:21:29;48.77;38.52;67.11;;
57439;Laerm;43282;47.188;8.896;2023-03-25T01:23:57;41.59;36.45;48.51;;
57439;Laerm;43282;47.188;8.896;2023-03-25T01:26:23;42.26;37.70;54.40;;
57439;Laerm;43282;47.188;8.896;2023-03-25T01:28:48;45.10;38.81;58.30;;
57439;Laerm;43282;47.188;8.896;2023-03-25T01:31:13;42.42;38.47;53.46;;
57439;Laerm;43282;47.188;8.896;2023-03-25T01:33:39;44.11;40.13;60.77;;
57439;Laerm;43282;47.188;8.896;2023-03-25T01:36:05;49.74;39.08;78.30;;
57439;Laerm;43282;47.188;8.896;2023-03-25T01:38:34;56.69;41.22;81.12;;
57439;Laerm;43282;47.188;8.896;2023-03-25T01:41:00;57.22;44.31;78.99;;
57439;Laerm;43282;47.188;8.896;2023-03-25T01:43:25;51.57;43.99;71.10;;
57439;Laerm;43282;47.188;8.896;2023-03-25T01:45:51;58.68;45.17;90.33;;
57439;Laerm;43282;47.188;8.896;2023-03-25T01:48:18;62.89;49.55;90.16;;
57439;Laerm;43282;47.188;8.896;2023-03-25T01:50:46;59.94;45.42;86.56;;
57439;Laerm;43282;47.188;8.896;2023-03-25T01:53:12;54.36;45.99;66.42;;
57439;Laerm;43282;47.188;8.896;2023-03-25T01:55:38;55.47;49.65;71.02;;
57439;Laerm;43282;47.188;8.896;2023-03-25T01:58:06;55.30;49.51;73.44;;
57439;Laerm;43282;47.188;8.896;2023-03-25T02:00:34;55.06;49.24;71.63;;
57439;Laerm;43282;47.188;8.896;2023-03-25T02:03:01;57.96;46.73;77.25;;
57439;Laerm;43282;47.188;8.896;2023-03-25T02:05:37;56.77;45.63;79.77;;
57439;Laerm;43282;47.188;8.896;2023-03-25T02:08:05;49.49;44.03;69.87;;
57439;Laerm;43282;47.188;8.896;2023-03-25T02:10:33;53.40;44.16;71.28;;
57439;Laerm;43282;47.188;8.896;2023-03-25T02:12:58;49.59;46.32;58.02;;
57439;Laerm;43282;47.188;8.896;2023-03-25T02:15:24;50.38;45.60;67.31;;
57439;Laerm;43282;47.188;8.896;2023-03-25T02:28:23;49.63;39.21;68.55;;
57439;Laerm;43282;47.188;8.896;2023-03-25T02:33:44;45.04;40.53;56.06;;
57439;Laerm;43282;47.188;8.896;2023-03-25T02:43:51;41.37;39.46;48.12;;
57439;Laerm;43282;47.188;8.896;2023-03-25T02:46:17;47.40;39.81;65.20;;
57439;Laerm;43282;47.188;8.896;2023-03-25T02:51:11;49.77;38.05;67.84;;
57439;Laerm;43282;47.188;8.896;2023-03-25T02:53:37;41.01;37.32;44.23;;
57439;Laerm;43282;47.188;8.896;2023-03-25T02:56:05;46.87;38.21;63.62;;
57439;Laerm;43282;47.188;8.896;2023-03-25T02:58:32;42.50;36.69;51.10;;
57439;Laerm;43282;47.188;8.896;2023-03-25T03:00:58;44.70;39.70;60.25;;
57439;Laerm;43282;47.188;8.896;2023-03-25T03:03:24;44.90;40.03;55.88;;
57439;Laerm;43282;47.188;8.896;2023-03-25T03:05:50;49.59;40.13;66.97;;
57439;Laerm;43282;47.188;8.896;2023-03-25T03:08:21;43.39;40.23;53.27;;
57439;Laerm;43282;47.188;8.896;2023-03-25T03:16:13;50.61;40.98;69.37;;
57439;Laerm;43282;47.188;8.896;2023-03-25T03:24:15;44.23;40.71;55.01;;
57439;Laerm;43282;47.188;8.896;2023-03-25T03:26:46;43.72;38.52;59.49;;
57439;Laerm;43282;47.188;8.896;2023-03-25T03:29:18;49.56;36.91;67.92;;
57439;Laerm;43282;47.188;8.896;2023-03-25T03:31:45;44.49;39.34;53.83;;
57439;Laerm;43282;47.188;8.896;2023-03-25T03:34:23;47.88;41.61;66.21;;
57439;Laerm;43282;47.188;8.896;2023-03-25T03:36:51;44.90;40.98;54.82;;
57439;Laerm;43282;47.188;8.896;2023-03-25T03:39:25;54.06;40.80;69.83;;
57439;Laerm;43282;47.188;8.896;2023-03-25T03:41:57;51.79;44.03;68.40;;
57439;Laerm;43282;47.188;8.896;2023-03-25T03:44:25;54.09;45.14;77.91;;
57439;Laerm;43282;47.188;8.896;2023-03-25T03:46:58;51.37;43.44;73.69;;
57439;Laerm;43282;47.188;8.896;2023-03-25T03:49:28;50.07;40.80;68.90;;
57439;Laerm;43282;47.188;8.896;2023-03-25T03:52:02;55.50;40.96;75.98;;
57439;Laerm;43282;47.188;8.896;2023-03-25T03:54:31;61.50;43.81;86.73;;
57439;Laerm;43282;47.188;8.896;2023-03-25T03:57:02;66.25;51.42;89.89;;
57439;Laerm;43282;47.188;8.896;2023-03-25T03:59:50;58.01;47.90;80.25;;
57439;Laerm;43282;47.188;8.896;2023-03-25T04:02:51;54.94;45.94;72.02;;
57439;Laerm;43282;47.188;8.896;2023-03-25T04:05:13;56.44;46.64;71.23;;
57439;Laerm;43282;47.188;8.896;2023-03-25T04:10:10;52.25;46.07;73.13;;
57439;Laerm;43282;47.188;8.896;2023-03-25T04:12:39;61.72;48.91;80.48;;
57439;Laerm;43282;47.188;8.896;2023-03-25T04:15:05;54.23;45.66;80.46;;
57439;Laerm;43282;47.188;8.896;2023-03-25T04:17:32;53.49;45.80;70.41;;
57439;Laerm;43282;47.188;8.896;2023-03-25T04:19:57;53.01;44.47;68.05;;
57439;Laerm;43282;47.188;8.896;2023-03-25T04:22:23;55.90;45.01;75.14;;
57439;Laerm;43282;47.188;8.896;2023-03-25T04:24:48;54.78;44.69;69.78;;
57439;Laerm;43282;47.188;8.896;2023-03-25T04:27:17;53.42;44.83;73.09;;
57439;Laerm;43282;47.188;8.896;2023-03-25T04:29:43;55.35;45.23;71.07;;
57439;Laerm;43282;47.188;8.896;2023-03-25T04:32:09;53.96;44.15;68.05;;
57439;Laerm;43282;47.188;8.896;2023-03-25T04:34:35;55.70;45.60;72.15;;
57439;Laerm;43282;47.188;8.896;2023-03-25T04:37:00;53.25;46.76;76.65;;
57439;Laerm;43282;47.188;8.896;2023-03-25T04:39:26;55.30;47.54;71.16;;
57439;Laerm;43282;47.188;8.896;2023-03-25T04:41:53;58.44;46.71;71.43;;
57439;Laerm;43282;47.188;8.896;2023-03-25T04:44:20;55.50;46.13;77.34;;
57439;Laerm;43282;47.188;8.896;2023-03-25T04:46:47;50.51;43.72;66.86;;
57439;Laerm;43282;47.188;8.896;2023-03-25T04:49:17;59.53;42.88;72.51;;
57439;Laerm;43282;47.188;8.896;2023-03-25T04:51:43;54.22;43.72;69.90;;
57439;Laerm;43282;47.188;8.896;2023-03-25T04:54:09;52.97;42.71;69.28;;
57439;Laerm;43282;47.188;8.896;2023-03-25T04:56:34;55.38;43.24;70.27;;
57439;Laerm;43282;47.188;8.896;2023-03-25T04:59:00;51.42;43.72;66.08;;
57439;Laerm;43282;47.188;8.896;2023-03-25T05:01:27;50.44;45.04;65.72;;
57439;Laerm;43282;47.188;8.896;2023-03-25T05:03:59;57.91;47.70;71.13;;
57439;Laerm;43282;47.188;8.896;2023-03-25T05:06:30;57.12;46.97;69.41;;
57439;Laerm;43282;47.188;8.896;2023-03-25T05:08:57;49.74;44.65;65.13;;
57439;Laerm;43282;47.188;8.896;2023-03-25T05:11:22;55.83;44.31;72.01;;
57439;Laerm;43282;47.188;8.896;2023-03-25T05:13:47;58.26;43.81;72.08;;
57439;Laerm;43282;47.188;8.896;2023-03-25T05:16:12;55.12;44.19;69.32;;
57439;Laerm;43282;47.188;8.896;2023-03-25T05:18:38;60.53;43.77;75.57;;
57439;Laerm;43282;47.188;8.896;2023-03-25T05:21:03;50.22;42.13;66.77;;
57439;Laerm;43282;47.188;8.896;2023-03-25T05:23:29;54.72;42.41;72.41;;
57439;Laerm;43282;47.188;8.896;2023-03-25T05:25:55;56.17;41.82;69.38;;
57439;Laerm;43282;47.188;8.896;2023-03-25T05:28:21;58.73;45.31;70.69;;
57439;Laerm;43282;47.188;8.896;2023-03-25T05:30:46;56.23;44.11;70.04;;
57439;Laerm;43282;47.188;8.896;2023-03-25T05:33:12;56.60;44.62;66.87;;
57439;Laerm;43282;47.188;8.896;2023-03-25T05:35:39;55.21;44.19;67.90;;
57439;Laerm;43282;47.188;8.896;2023-03-25T05:38:05;58.24;46.62;69.40;;
57439;Laerm;43282;47.188;8.896;2023-03-25T05:40:32;56.93;42.53;68.78;;
57439;Laerm;43282;47.188;8.896;2023-03-25T05:42:57;59.60;48.34;70.14;;
57439;Laerm;43282;47.188;8.896;2023-03-25T05:45:23;59.89;48.31;69.62;;
57439;Laerm;43282;47.188;8.896;2023-03-25T05:47:48;60.81;47.74;75.16;;
57439;Laerm;43282;47.188;8.896;2023-03-25T05:50:13;58.44;46.82;72.65;;
57439;Laerm;43282;47.188;8.896;2023-03-25T05:52:39;55.42;45.11;70.91;;
57439;Laerm;43282;47.188;8.896;2023-03-25T05:55:12;59.50;46.02;69.80;;
57439;Laerm;43282;47.188;8.896;2023-03-25T05:57:38;59.68;48.23;70.13;;
57439;Laerm;43282;47.188;8.896;2023-03-25T06:00:04;60.09;48.95;69.96;;
57439;Laerm;43282;47.188;8.896;2023-03-25T06:02:31;57.74;48.95;70.43;;
57439;Laerm;43282;47.188;8.896;2023-03-25T06:04:57;61.13;45.80;74.90;;
57439;Laerm;43282;47.188;8.896;2023-03-25T06:07:23;58.61;47.00;69.87;;
57439;Laerm;43282;47.188;8.896;2023-03-25T06:09:50;58.90;47.52;73.09;;
57439;Laerm;43282;47.188;8.896;2023-03-25T06:12:19;56.86;44.65;68.90;;
57439;Laerm;43282;47.188;8.896;2023-03-25T06:14:45;57.90;47.42;70.20;;
57439;Laerm;43282;47.188;8.896;2023-03-25T06:17:14;58.55;46.55;69.51;;
57439;Laerm;43282;47.188;8.896;2023-03-25T06:19:40;59.86;50.27;69.64;;
57439;Laerm;43282;47.188;8.896;2023-03-25T06:22:06;59.67;49.87;70.14;;
57439;Laerm;43282;47.188;8.896;2023-03-25T06:24:33;58.59;48.78;69.39;;
57439;Laerm;43282;47.188;8.896;2023-03-25T06:26:59;58.86;49.28;70.46;;
57439;Laerm;43282;47.188;8.896;2023-03-25T06:29:24;57.88;48.83;68.32;;
57439;Laerm;43282;47.188;8.896;2023-03-25T06:31:50;56.55;46.05;68.37;;
57439;Laerm;43282;47.188;8.896;2023-03-25T06:34:15;56.29;44.69;69.37;;
57439;Laerm;43282;47.188;8.896;2023-03-25T06:36:40;58.06;45.17;67.90;;
57439;Laerm;43282;47.188;8.896;2023-03-25T06:39:06;57.39;46.52;69.02;;
57439;Laerm;43282;47.188;8.896;2023-03-25T06:41:31;57.11;49.02;67.41;;
57439;Laerm;43282;47.188;8.896;2023-03-25T06:43:59;58.06;46.20;68.95;;
57439;Laerm;43282;47.188;8.896;2023-03-25T06:46:24;60.07;47.59;70.51;;
57439;Laerm;43282;47.188;8.896;2023-03-25T06:48:50;58.22;46.30;69.86;;
57439;Laerm;43282;47.188;8.896;2023-03-25T06:51:15;60.24;46.52;74.00;;
57439;Laerm;43282;47.188;8.896;2023-03-25T06:53:41;62.81;52.61;72.17;;
57439;Laerm;43282;47.188;8.896;2023-03-25T06:56:06;62.99;48.63;72.83;;
57439;Laerm;43282;47.188;8.896;2023-03-25T06:58:31;63.54;51.91;74.57;;
57439;Laerm;43282;47.188;8.896;2023-03-25T07:00:59;59.78;47.79;72.12;;
57439;Laerm;43282;47.188;8.896;2023-03-25T07:03:28;62.66;48.60;75.37;;
57439;Laerm;43282;47.188;8.896;2023-03-25T07:05:53;63.85;49.73;76.03;;
57439;Laerm;43282;47.188;8.896;2023-03-25T07:08:18;58.99;47.72;71.96;;
57439;Laerm;43282;47.188;8.896;2023-03-25T07:10:44;59.31;47.26;71.58;;
57439;Laerm;43282;47.188;8.896;2023-03-25T07:13:10;63.32;48.13;73.82;;
57439;Laerm;43282;47.188;8.896;2023-03-25T07:15:35;61.76;47.76;70.79;;
57439;Laerm;43282;47.188;8.896;2023-03-25T07:18:00;60.12;46.43;71.83;;
57439;Laerm;43282;47.188;8.896;2023-03-25T07:20:25;61.42;46.97;73.26;;
57439;Laerm;43282;47.188;8.896;2023-03-25T07:22:52;58.15;47.50;72.54;;
57439;Laerm;43282;47.188;8.896;2023-03-25T07:25:17;60.79;48.64;72.31;;
57439;Laerm;43282;47.188;8.896;2023-03-25T07:27:43;60.98;49.20;70.55;;
57439;Laerm;43282;47.188;8.896;2023-03-25T07:30:08;60.14;50.03;71.71;;
57439;Laerm;43282;47.188;8.896;2023-03-25T07:32:34;61.85;50.38;71.29;;
57439;Laerm;43282;47.188;8.896;2023-03-25T07:34:59;61.06;48.66;71.53;;
57439;Laerm;43282;47.188;8.896;2023-03-25T07:37:24;61.80;50.03;71.12;;
57439;Laerm;43282;47.188;8.896;2023-03-25T07:39:49;61.71;51.33;70.60;;
57439;Laerm;43282;47.188;8.896;2023-03-25T07:42:15;62.41;49.81;77.05;;
57439;Laerm;43282;47.188;8.896;2023-03-25T07:44:40;59.48;49.88;70.15;;
57439;Laerm;43282;47.188;8.896;2023-03-25T07:47:05;61.88;51.78;71.20;;
57439;Laerm;43282;47.188;8.896;2023-03-25T07:49:30;62.61;52.38;76.01;;
57439;Laerm;43282;47.188;8.896;2023-03-25T07:51:56;62.08;53.16;71.03;;
57439;Laerm;43282;47.188;8.896;2023-03-25T07:54:21;62.42;52.49;70.03;;
57439;Laerm;43282;47.188;8.896;2023-03-25T07:56:48;60.58;52.28;73.63;;
57439;Laerm;43282;47.188;8.896;2023-03-25T07:59:13;60.05;50.85;69.02;;
57439;Laerm;43282;47.188;8.896;2023-03-25T08:01:39;59.92;51.44;69.04;;
57439;Laerm;43282;47.188;8.896;2023-03-25T08:04:04;62.30;49.65;75.61;;
57439;Laerm;43282;47.188;8.896;2023-03-25T08:06:29;60.07;50.13;67.79;;
57439;Laerm;43282;47.188;8.896;2023-03-25T08:08:55;61.20;52.10;71.95;;
57439;Laerm;43282;47.188;8.896;2023-03-25T08:11:20;62.41;51.26;73.41;;
57439;Laerm;43282;47.188;8.896;2023-03-25T08:13:46;59.80;51.86;67.39;;
57439;Laerm;43282;47.188;8.896;2023-03-25T08:16:11;62.62;52.35;77.85;;
57439;Laerm;43282;47.188;8.896;2023-03-25T08:18:37;60.11;50.65;71.55;;
57439;Laerm;43282;47.188;8.896;2023-03-25T08:21:02;58.83;51.13;67.19;;
57439;Laerm;43282;47.188;8.896;2023-03-25T08:23:28;61.62;51.80;70.28;;
57439;Laerm;43282;47.188;8.896;2023-03-25T08:25:53;61.26;52.17;70.61;;
57439;Laerm;43282;47.188;8.896;2023-03-25T08:28:19;61.80;49.70;69.82;;
57439;Laerm;43282;47.188;8.896;2023-03-25T08:30:51;60.88;48.60;71.24;;
57439;Laerm;43282;47.188;8.896;2023-03-25T08:33:19;62.10;51.50;73.60;;
57439;Laerm;43282;47.188;8.896;2023-03-25T08:35:45;61.06;51.35;70.62;;
57439;Laerm;43282;47.188;8.896;2023-03-25T08:38:11;61.07;52.13;70.19;;
57439;Laerm;43282;47.188;8.896;2023-03-25T08:40:36;62.25;53.94;70.07;;
57439;Laerm;43282;47.188;8.896;2023-03-25T08:43:04;61.20;48.98;68.73;;
57439;Laerm;43282;47.188;8.896;2023-03-25T08:45:30;61.92;52.29;72.59;;
57439;Laerm;43282;47.188;8.896;2023-03-25T08:47:59;62.71;52.33;73.91;;
57439;Laerm;43282;47.188;8.896;2023-03-25T08:50:25;60.65;50.99;70.69;;
57439;Laerm;43282;47.188;8.896;2023-03-25T08:52:51;61.92;52.31;71.10;;
57439;Laerm;43282;47.188;8.896;2023-03-25T08:55:18;61.75;53.66;72.55;;
57439;Laerm;43282;47.188;8.896;2023-03-25T08:57:44;61.12;54.21;69.78;;
57439;Laerm;43282;47.188;8.896;2023-03-25T09:00:09;63.18;54.14;76.45;;
57439;Laerm;43282;47.188;8.896;2023-03-25T09:02:37;61.13;51.98;70.88;;
57439;Laerm;43282;47.188;8.896;2023-03-25T09:05:02;61.57;53.24;72.84;;
57439;Laerm;43282;47.188;8.896;2023-03-25T09:07:29;60.84;53.20;71.08;;
57439;Laerm;43282;47.188;8.896;2023-03-25T09:09:55;61.59;52.44;70.63;;
57439;Laerm;43282;47.188;8.896;2023-03-25T09:12:21;59.67;51.74;72.97;;
57439;Laerm;43282;47.188;8.896;2023-03-25T09:14:46;62.56;53.35;72.85;;
57439;Laerm;43282;47.188;8.896;2023-03-25T09:17:11;62.83;53.15;76.68;;
57439;Laerm;43282;47.188;8.896;2023-03-25T09:19:37;60.68;53.09;68.60;;
57439;Laerm;43282;47.188;8.896;2023-03-25T09:22:02;61.69;53.89;71.82;;
57439;Laerm;43282;47.188;8.896;2023-03-25T09:24:28;62.61;55.32;73.42;;
57439;Laerm;43282;47.188;8.896;2023-03-25T09:26:53;60.22;52.58;67.96;;
57439;Laerm;43282;47.188;8.896;2023-03-25T09:29:18;62.93;54.21;76.60;;
57439;Laerm;43282;47.188;8.896;2023-03-25T09:31:43;61.69;54.76;69.18;;
57439;Laerm;43282;47.188;8.896;2023-03-25T09:34:09;62.26;53.62;80.67;;
57439;Laerm;43282;47.188;8.896;2023-03-25T09:36:35;63.97;53.09;75.93;;
57439;Laerm;43282;47.188;8.896;2023-03-25T09:39:01;68.96;54.93;87.02;;
57439;Laerm;43282;47.188;8.896;2023-03-25T09:46:22;62.61;53.40;72.30;;
57439;Laerm;43282;47.188;8.896;2023-03-25T09:48:48;60.25;52.29;69.28;;
57439;Laerm;43282;47.188;8.896;2023-03-25T09:51:17;60.93;50.06;69.09;;
57439;Laerm;43282;47.188;8.896;2023-03-25T09:56:17;61.91;53.36;71.14;;
57439;Laerm;43282;47.188;8.896;2023-03-25T09:58:52;62.11;52.95;70.12;;
57439;Laerm;43282;47.188;8.896;2023-03-25T10:01:31;62.01;52.51;70.28;;
57439;Laerm;43282;47.188;8.896;2023-03-25T10:04:06;62.03;53.73;71.36;;
57439;Laerm;43282;47.188;8.896;2023-03-25T10:06:41;60.78;49.66;74.64;;
57439;Laerm;43282;47.188;8.896;2023-03-25T10:09:16;65.12;47.90;75.55;;
57439;Laerm;43282;47.188;8.896;2023-03-25T10:11:49;62.51;46.62;74.95;;
57439;Laerm;43282;47.188;8.896;2023-03-25T10:14:20;61.73;46.97;73.75;;
57439;Laerm;43282;47.188;8.896;2023-03-25T10:16:56;62.16;47.70;79.07;;
57439;Laerm;43282;47.188;8.896;2023-03-25T10:27:00;59.02;46.73;70.40;;
57439;Laerm;43282;47.188;8.896;2023-03-25T10:29:31;61.38;48.73;72.08;;
57439;Laerm;43282;47.188;8.896;2023-03-25T10:31:59;61.77;49.56;72.11;;
57439;Laerm;43282;47.188;8.896;2023-03-25T10:34:32;61.47;50.51;70.29;;
57439;Laerm;43282;47.188;8.896;2023-03-25T10:36:59;61.52;50.32;71.45;;
57439;Laerm;43282;47.188;8.896;2023-03-25T10:39:30;60.56;49.00;70.21;;
57439;Laerm;43282;47.188;8.896;2023-03-25T10:41:58;63.46;51.48;75.45;;
57439;Laerm;43282;47.188;8.896;2023-03-25T10:44:25;61.92;49.40;69.98;;
57439;Laerm;43282;47.188;8.896;2023-03-25T10:46:53;62.58;49.19;77.51;;
57439;Laerm;43282;47.188;8.896;2023-03-25T10:49:21;61.31;50.33;71.37;;
57439;Laerm;43282;47.188;8.896;2023-03-25T10:51:49;60.39;49.34;71.48;;
57439;Laerm;43282;47.188;8.896;2023-03-25T10:54:18;61.21;47.46;70.18;;
57439;Laerm;43282;47.188;8.896;2023-03-25T10:56:50;61.44;47.26;76.98;;
57439;Laerm;43282;47.188;8.896;2023-03-25T11:02:11;59.96;48.83;69.50;;
57439;Laerm;43282;47.188;8.896;2023-03-25T11:04:39;60.37;50.35;74.33;;
57439;Laerm;43282;47.188;8.896;2023-03-25T11:07:12;61.20;49.91;73.64;;
57439;Laerm;43282;47.188;8.896;2023-03-25T11:09:40;60.88;47.30;72.59;;
57439;Laerm;43282;47.188;8.896;2023-03-25T11:12:06;61.15;46.73;70.71;;
57439;Laerm;43282;47.188;8.896;2023-03-25T11:14:35;60.15;45.01;73.22;;
57439;Laerm;43282;47.188;8.896;2023-03-25T11:17:01;60.23;46.93;70.56;;
57439;Laerm;43282;47.188;8.896;2023-03-25T11:19:30;56.04;42.82;67.29;;
57439;Laerm;43282;47.188;8.896;2023-03-25T11:21:57;57.38;44.23;66.71;;
57439;Laerm;43282;47.188;8.896;2023-03-25T11:24:34;59.12;46.07;67.98;;
57439;Laerm;43282;47.188;8.896;2023-03-25T11:27:05;58.54;45.73;71.47;;
57439;Laerm;43282;47.188;8.896;2023-03-25T11:29:31;59.23;43.99;71.05;;
57439;Laerm;43282;47.188;8.896;2023-03-25T11:32:06;65.83;45.89;85.10;;
57439;Laerm;43282;47.188;8.896;2023-03-25T11:34:34;57.66;44.39;69.14;;
57439;Laerm;43282;47.188;8.896;2023-03-25T11:37:06;57.87;44.73;67.54;;
57439;Laerm;43282;47.188;8.896;2023-03-25T11:39:39;57.08;46.27;71.44;;
57439;Laerm;43282;47.188;8.896;2023-03-25T11:44:36;58.46;45.94;67.54;;
57439;Laerm;43282;47.188;8.896;2023-03-25T11:47:03;60.30;48.45;70.31;;
57439;Laerm;43282;47.188;8.896;2023-03-25T11:49:32;59.03;47.00;69.44;;
57439;Laerm;43282;47.188;8.896;2023-03-25T11:52:04;59.00;47.04;76.71;;
57439;Laerm;43282;47.188;8.896;2023-03-25T11:54:31;58.60;47.48;70.34;;
57439;Laerm;43282;47.188;8.896;2023-03-25T11:56:58;60.22;46.45;81.25;;
57439;Laerm;43282;47.188;8.896;2023-03-25T11:59:25;54.52;44.62;67.96;;
57439;Laerm;43282;47.188;8.896;2023-03-25T12:01:58;58.84;45.20;69.87;;
57439;Laerm;43282;47.188;8.896;2023-03-25T12:04:25;56.82;44.54;71.27;;
57439;Laerm;43282;47.188;8.896;2023-03-25T12:07:09;58.53;45.11;76.74;;
57439;Laerm;43282;47.188;8.896;2023-03-25T12:09:35;60.16;46.97;73.71;;
57439;Laerm;43282;47.188;8.896;2023-03-25T12:12:11;58.12;45.27;77.39;;
57439;Laerm;43282;47.188;8.896;2023-03-25T12:14:59;58.68;44.69;70.77;;
57439;Laerm;43282;47.188;8.896;2023-03-25T12:20:29;58.14;45.20;72.99;;
57439;Laerm;43282;47.188;8.896;2023-03-25T12:23:03;58.17;47.28;75.10;;
57439;Laerm;43282;47.188;8.896;2023-03-25T12:39:26;58.34;47.24;77.99;;
57439;Laerm;43282;47.188;8.896;2023-03-25T12:41:38;58.29;46.59;75.58;;
57439;Laerm;43282;47.188;8.896;2023-03-25T12:44:06;58.94;44.31;73.12;;
57439;Laerm;43282;47.188;8.896;2023-03-25T12:51:51;58.39;46.78;71.25;;
57439;Laerm;43282;47.188;8.896;2023-03-25T13:02:03;54.90;44.83;68.22;;
57439;Laerm;43282;47.188;8.896;2023-03-25T13:05:15;59.81;43.49;74.81;;
57439;Laerm;43282;47.188;8.896;2023-03-25T13:10:13;56.84;44.76;72.24;;
57439;Laerm;43282;47.188;8.896;2023-03-25T13:12:45;61.60;47.46;78.55;;
57439;Laerm;43282;47.188;8.896;2023-03-25T13:17:52;60.09;47.32;77.52;;
57439;Laerm;43282;47.188;8.896;2023-03-25T13:20:21;56.40;47.22;69.19;;
57439;Laerm;43282;47.188;8.896;2023-03-25T13:22:49;61.50;46.55;79.61;;
57439;Laerm;43282;47.188;8.896;2023-03-25T13:25:20;58.23;45.42;74.72;;
57439;Laerm;43282;47.188;8.896;2023-03-25T13:27:49;56.98;46.18;65.87;;
57439;Laerm;43282;47.188;8.896;2023-03-25T13:30:18;64.78;45.80;91.73;;
57439;Laerm;43282;47.188;8.896;2023-03-25T13:32:45;56.71;44.94;68.50;;
57439;Laerm;43282;47.188;8.896;2023-03-25T13:35:15;59.05;46.78;73.24;;
57439;Laerm;43282;47.188;8.896;2023-03-25T13:37:47;55.49;45.27;72.33;;
57439;Laerm;43282;47.188;8.896;2023-03-25T13:45:50;57.07;44.97;74.16;;
57439;Laerm;43282;47.188;8.896;2023-03-25T13:48:30;57.34;46.15;70.94;;
57439;Laerm;43282;47.188;8.896;2023-03-25T13:51:00;56.13;45.75;76.95;;
57439;Laerm;43282;47.188;8.896;2023-03-25T13:53:34;60.52;45.45;90.87;;
57439;Laerm;43282;47.188;8.896;2023-03-25T14:01:07;55.57;45.01;69.41;;
57439;Laerm;43282;47.188;8.896;2023-03-25T14:13:40;57.17;45.04;72.10;;
57439;Laerm;43282;47.188;8.896;2023-03-25T14:16:09;59.38;45.66;85.63;;
57439;Laerm;43282;47.188;8.896;2023-03-25T14:18:42;57.49;47.06;75.68;;
57439;Laerm;43282;47.188;8.896;2023-03-25T14:23:45;58.40;44.47;73.38;;
57439;Laerm;43282;47.188;8.896;2023-03-25T14:26:11;56.34;45.83;68.44;;
57439;Laerm;43282;47.188;8.896;2023-03-25T14:28:37;56.16;47.10;70.71;;
57439;Laerm;43282;47.188;8.896;2023-03-25T14:36:27;64.23;47.16;84.74;;
57439;Laerm;43282;47.188;8.896;2023-03-25T14:38:53;56.19;45.60;77.09;;
57439;Laerm;43282;47.188;8.896;2023-03-25T14:44:09;57.31;45.86;74.01;;
57439;Laerm;43282;47.188;8.896;2023-03-25T14:46:42;57.20;46.48;75.52;;
57439;Laerm;43282;47.188;8.896;2023-03-25T14:49:17;59.00;44.51;84.87;;
57439;Laerm;43282;47.188;8.896;2023-03-25T14:51:44;56.81;46.33;69.86;;
57439;Laerm;43282;47.188;8.896;2023-03-25T14:57:06;58.57;46.97;76.19;;
57439;Laerm;43282;47.188;8.896;2023-03-25T14:59:34;57.21;45.89;70.75;;
57439;Laerm;43282;47.188;8.896;2023-03-25T15:02:02;57.81;45.86;71.86;;
57439;Laerm;43282;47.188;8.896;2023-03-25T15:04:35;61.94;50.00;77.03;;
57439;Laerm;43282;47.188;8.896;2023-03-25T15:07:02;58.25;48.74;68.24;;
57439;Laerm;43282;47.188;8.896;2023-03-25T15:09:41;57.59;44.12;72.71;;
57439;Laerm;43282;47.188;8.896;2023-03-25T15:12:08;57.39;46.35;71.14;;
57439;Laerm;43282;47.188;8.896;2023-03-25T15:14:38;59.21;44.35;78.25;;
57439;Laerm;43282;47.188;8.896;2023-03-25T15:17:06;53.80;44.15;65.69;;
57439;Laerm;43282;47.188;8.896;2023-03-25T15:22:19;54.63;44.07;66.97;;
57439;Laerm;43282;47.188;8.896;2023-03-25T15:24:48;56.33;43.34;66.48;;
57439;Laerm;43282;47.188;8.896;2023-03-25T15:27:35;57.35;47.67;65.28;;
57439;Laerm;43282;47.188;8.896;2023-03-25T15:30:08;61.63;47.46;82.48;;
57439;Laerm;43282;47.188;8.896;2023-03-25T15:43:19;55.12;43.24;67.12;;
57439;Laerm;43282;47.188;8.896;2023-03-25T15:53:58;58.36;43.81;72.28;;
57439;Laerm;43282;47.188;8.896;2023-03-25T15:56:31;57.15;43.58;68.55;;
57439;Laerm;43282;47.188;8.896;2023-03-25T15:59:04;56.61;43.34;77.42;;
57439;Laerm;43282;47.188;8.896;2023-03-25T16:01:34;55.60;42.41;78.48;;
57439;Laerm;43282;47.188;8.896;2023-03-25T16:06:42;55.17;42.47;67.64;;
57439;Laerm;43282;47.188;8.896;2023-03-25T16:09:10;53.68;42.59;65.30;;
57439;Laerm;43282;47.188;8.896;2023-03-25T16:11:42;56.30;43.34;68.21;;
57439;Laerm;43282;47.188;8.896;2023-03-25T16:14:11;56.32;42.93;69.57;;
57439;Laerm;43282;47.188;8.896;2023-03-25T16:16:38;54.36;42.47;65.68;;
57439;Laerm;43282;47.188;8.896;2023-03-25T16:19:07;57.11;43.99;68.49;;